sensor_id;sensor_type;location;lat;lon;timestamp;pressure;altitude;pressure_sealevel;temperature;humidity
11198;BME280;5655;48.744;9.162;2023-04-21T00:01:59;95727.47;;;7.33;100.00
11198;BME280;5655;48.744;9.162;2023-04-21T00:04:24;95719.22;;;7.15;100.00
11198;BME280;5655;48.744;9.162;2023-04-21T00:06:50;95712.69;;;7.13;100.00
11198;BME280;5655;48.744;9.162;2023-04-21T00:09:17;95721.34;;;7.29;100.00
11198;BME280;5655;48.744;9.162;2023-04-21T00:11:42;95723.81;;;7.41;100.00
11198;BME280;5655;48.744;9.162;2023-04-21T00:14:07;95720.66;;;7.36;100.00
11198;BME280;5655;48.744;9.162;2023-04-21T00:16:33;95716.84;;;7.33;100.00
11198;BME280;5655;48.744;9.162;2023-04-21T00:18:58;95718.16;;;7.20;100.00
11198;BME280;5655;48.744;9.162;2023-04-21T00:21:23;95722.59;;;7.39;100.00
11198;BME280;5655;48.744;9.162;2023-04-21T00:23:49;95715.16;;;7.25;100.00
11198;BME280;5655;48.744;9.162;2023-04-21T00:26:14;95717.66;;;7.37;100.00
11198;BME280;5655;48.744;9.162;2023-04-21T00:28:40;95716.75;;;7.29;100.00
11198;BME280;5655;48.744;9.162;2023-04-21T00:31:05;95715.28;;;7.32;100.00
11198;BME280;5655;48.744;9.162;2023-04-21T00:33:30;95697.44;;;7.10;100.00
11198;BME280;5655;48.744;9.162;2023-04-21T00:35:55;95706.84;;;7.26;100.00
11198;BME280;5655;48.744;9.162;2023-04-21T00:38:23;95704.53;;;7.25;100.00
11198;BME280;5655;48.744;9.162;2023-04-21T00:40:48;95704.59;;;7.06;100.00
11198;BME280;5655;48.744;9.162;2023-04-21T00:43:13;95700.09;;;7.10;100.00
11198;BME280;5655;48.744;9.162;2023-04-21T00:45:39;95704.19;;;7.04;100.00
11198;BME280;5655;48.744;9.162;2023-04-21T00:48:05;95713.53;;;7.17;100.00
11198;BME280;5655;48.744;9.162;2023-04-21T00:50:32;95696.84;;;7.20;100.00
11198;BME280;5655;48.744;9.162;2023-04-21T00:52:57;95693.06;;;7.21;100.00
11198;BME280;5655;48.744;9.162;2023-04-21T00:55:24;95695.41;;;7.26;100.00
11198;BME280;5655;48.744;9.162;2023-04-21T00:57:51;95708.75;;;7.52;100.00
11198;BME280;5655;48.744;9.162;2023-04-21T01:00:16;95702.22;;;7.23;100.00
11198;BME280;5655;48.744;9.162;2023-04-21T01:02:42;95693.19;;;7.28;100.00
11198;BME280;5655;48.744;9.162;2023-04-21T01:05:09;95698.31;;;7.17;100.00
11198;BME280;5655;48.744;9.162;2023-04-21T01:07:35;95689.47;;;7.10;100.00
11198;BME280;5655;48.744;9.162;2023-04-21T01:10:01;95691.03;;;7.37;100.00
11198;BME280;5655;48.744;9.162;2023-04-21T01:12:27;95689.53;;;7.40;100.00
11198;BME280;5655;48.744;9.162;2023-04-21T01:14:52;95688.69;;;7.32;100.00
11198;BME280;5655;48.744;9.162;2023-04-21T01:17:18;95685.16;;;7.02;100.00
11198;BME280;5655;48.744;9.162;2023-04-21T01:19:43;95679.94;;;7.09;100.00
11198;BME280;5655;48.744;9.162;2023-04-21T01:22:11;95677.19;;;7.02;100.00
11198;BME280;5655;48.744;9.162;2023-04-21T01:24:38;95679.34;;;7.19;100.00
11198;BME280;5655;48.744;9.162;2023-04-21T01:27:08;95679.34;;;7.19;100.00
11198;BME280;5655;48.744;9.162;2023-04-21T01:29:34;95666.78;;;6.93;100.00
11198;BME280;5655;48.744;9.162;2023-04-21T01:32:07;95680.38;;;7.37;100.00
11198;BME280;5655;48.744;9.162;2023-04-21T01:34:33;95694.72;;;7.29;100.00
11198;BME280;5655;48.744;9.162;2023-04-21T01:36:58;95689.28;;;7.22;100.00
11198;BME280;5655;48.744;9.162;2023-04-21T01:39:24;95689.53;;;6.91;100.00
11198;BME280;5655;48.744;9.162;2023-04-21T01:41:49;95691.84;;;6.92;100.00
11198;BME280;5655;48.744;9.162;2023-04-21T01:44:15;95683.63;;;7.01;100.00
11198;BME280;5655;48.744;9.162;2023-04-21T01:46:40;95684.38;;;6.78;100.00
11198;BME280;5655;48.744;9.162;2023-04-21T01:49:05;95687.63;;;6.91;100.00
11198;BME280;5655;48.744;9.162;2023-04-21T01:51:31;95692.19;;;7.13;100.00
11198;BME280;5655;48.744;9.162;2023-04-21T01:53:57;95685.88;;;6.99;100.00
11198;BME280;5655;48.744;9.162;2023-04-21T01:56:22;95689.03;;;7.08;100.00
11198;BME280;5655;48.744;9.162;2023-04-21T01:58:47;95691.94;;;7.22;100.00
11198;BME280;5655;48.744;9.162;2023-04-21T02:01:13;95696.63;;;7.06;100.00
11198;BME280;5655;48.744;9.162;2023-04-21T02:03:38;95686.16;;;6.94;100.00
11198;BME280;5655;48.744;9.162;2023-04-21T02:06:04;95683.66;;;7.04;100.00
11198;BME280;5655;48.744;9.162;2023-04-21T02:08:30;95686.22;;;6.74;100.00
11198;BME280;5655;48.744;9.162;2023-04-21T02:10:55;95675.41;;;6.87;100.00
11198;BME280;5655;48.744;9.162;2023-04-21T02:13:20;95677.91;;;6.99;100.00
11198;BME280;5655;48.744;9.162;2023-04-21T02:15:46;95675.63;;;6.55;100.00
11198;BME280;5655;48.744;9.162;2023-04-21T02:18:11;95673.97;;;6.47;100.00
11198;BME280;5655;48.744;9.162;2023-04-21T02:20:37;95672.38;;;6.65;100.00
11198;BME280;5655;48.744;9.162;2023-04-21T02:23:02;95669.34;;;6.44;100.00
11198;BME280;5655;48.744;9.162;2023-04-21T02:25:28;95672.81;;;6.67;100.00
11198;BME280;5655;48.744;9.162;2023-04-21T02:27:54;95671.59;;;6.65;100.00
11198;BME280;5655;48.744;9.162;2023-04-21T02:30:20;95678.78;;;6.83;100.00
11198;BME280;5655;48.744;9.162;2023-04-21T02:32:45;95671.31;;;6.47;100.00
11198;BME280;5655;48.744;9.162;2023-04-21T02:35:10;95671.50;;;6.16;100.00
11198;BME280;5655;48.744;9.162;2023-04-21T02:37:36;95670.91;;;6.26;100.00
11198;BME280;5655;48.744;9.162;2023-04-21T02:40:01;95676.88;;;6.61;100.00
11198;BME280;5655;48.744;9.162;2023-04-21T02:42:26;95690.38;;;6.53;100.00
11198;BME280;5655;48.744;9.162;2023-04-21T02:44:52;95692.19;;;6.68;100.00
11198;BME280;5655;48.744;9.162;2023-04-21T02:47:17;95692.00;;;6.57;100.00
11198;BME280;5655;48.744;9.162;2023-04-21T02:49:42;95681.94;;;6.47;100.00
11198;BME280;5655;48.744;9.162;2023-04-21T02:52:08;95682.06;;;6.54;100.00
11198;BME280;5655;48.744;9.162;2023-04-21T02:54:33;95689.94;;;6.28;100.00
11198;BME280;5655;48.744;9.162;2023-04-21T02:56:58;95691.31;;;6.22;100.00
11198;BME280;5655;48.744;9.162;2023-04-21T02:59:24;95680.56;;;6.34;100.00
11198;BME280;5655;48.744;9.162;2023-04-21T03:01:49;95673.94;;;6.24;100.00
11198;BME280;5655;48.744;9.162;2023-04-21T03:04:14;95674.03;;;6.51;100.00
11198;BME280;5655;48.744;9.162;2023-04-21T03:06:40;95687.41;;;6.77;100.00
11198;BME280;5655;48.744;9.162;2023-04-21T03:09:05;95687.19;;;6.86;100.00
11198;BME280;5655;48.744;9.162;2023-04-21T03:11:31;95679.59;;;6.88;100.00
11198;BME280;5655;48.744;9.162;2023-04-21T03:13:56;95667.66;;;6.55;100.00
11198;BME280;5655;48.744;9.162;2023-04-21T03:16:21;95656.84;;;6.45;100.00
11198;BME280;5655;48.744;9.162;2023-04-21T03:18:47;95658.44;;;6.49;100.00
11198;BME280;5655;48.744;9.162;2023-04-21T03:21:12;95654.19;;;6.67;100.00
11198;BME280;5655;48.744;9.162;2023-04-21T03:23:37;95665.41;;;7.03;100.00
11198;BME280;5655;48.744;9.162;2023-04-21T03:26:09;95666.19;;;7.29;100.00
11198;BME280;5655;48.744;9.162;2023-04-21T03:28:34;95662.75;;;6.80;100.00
11198;BME280;5655;48.744;9.162;2023-04-21T03:30:59;95653.31;;;6.60;100.00
11198;BME280;5655;48.744;9.162;2023-04-21T03:33:25;95659.81;;;6.85;100.00
11198;BME280;5655;48.744;9.162;2023-04-21T03:35:50;95671.91;;;7.05;100.00
11198;BME280;5655;48.744;9.162;2023-04-21T03:38:15;95664.00;;;6.86;100.00
11198;BME280;5655;48.744;9.162;2023-04-21T03:40:41;95654.44;;;6.81;100.00
11198;BME280;5655;48.744;9.162;2023-04-21T03:43:06;95654.44;;;6.81;100.00
11198;BME280;5655;48.744;9.162;2023-04-21T03:45:34;95658.56;;;7.02;100.00
11198;BME280;5655;48.744;9.162;2023-04-21T03:47:59;95654.31;;;6.74;100.00
11198;BME280;5655;48.744;9.162;2023-04-21T03:50:24;95666.00;;;6.93;100.00
11198;BME280;5655;48.744;9.162;2023-04-21T03:52:50;95663.22;;;6.63;100.00
11198;BME280;5655;48.744;9.162;2023-04-21T03:55:15;95660.03;;;6.54;100.00
11198;BME280;5655;48.744;9.162;2023-04-21T03:57:40;95659.25;;;6.53;100.00
11198;BME280;5655;48.744;9.162;2023-04-21T04:00:07;95659.91;;;6.47;100.00
11198;BME280;5655;48.744;9.162;2023-04-21T04:02:34;95662.75;;;6.57;100.00
11198;BME280;5655;48.744;9.162;2023-04-21T04:05:01;95659.16;;;6.46;100.00
11198;BME280;5655;48.744;9.162;2023-04-21T04:07:26;95659.16;;;6.46;100.00
11198;BME280;5655;48.744;9.162;2023-04-21T04:09:51;95661.53;;;6.13;100.00
11198;BME280;5655;48.744;9.162;2023-04-21T04:12:16;95668.69;;;6.28;100.00
11198;BME280;5655;48.744;9.162;2023-04-21T04:14:42;95678.97;;;6.52;100.00
11198;BME280;5655;48.744;9.162;2023-04-21T04:17:07;95670.78;;;6.38;100.00
11198;BME280;5655;48.744;9.162;2023-04-21T04:19:32;95683.34;;;6.41;100.00
11198;BME280;5655;48.744;9.162;2023-04-21T04:21:59;95684.47;;;6.40;100.00
11198;BME280;5655;48.744;9.162;2023-04-21T04:24:25;95681.69;;;6.33;100.00
11198;BME280;5655;48.744;9.162;2023-04-21T04:26:51;95680.41;;;6.46;100.00
11198;BME280;5655;48.744;9.162;2023-04-21T04:29:17;95680.97;;;6.36;100.00
11198;BME280;5655;48.744;9.162;2023-04-21T04:31:44;95689.38;;;6.38;100.00
11198;BME280;5655;48.744;9.162;2023-04-21T04:34:09;95683.13;;;6.30;100.00
11198;BME280;5655;48.744;9.162;2023-04-21T04:36:35;95686.28;;;6.36;100.00
11198;BME280;5655;48.744;9.162;2023-04-21T04:39:00;95693.75;;;6.30;100.00
11198;BME280;5655;48.744;9.162;2023-04-21T04:41:28;95691.59;;;6.36;100.00
11198;BME280;5655;48.744;9.162;2023-04-21T04:43:54;95688.81;;;6.29;100.00
11198;BME280;5655;48.744;9.162;2023-04-21T04:46:23;95679.19;;;6.21;100.00
11198;BME280;5655;48.744;9.162;2023-04-21T04:48:50;95688.00;;;6.25;100.00
11198;BME280;5655;48.744;9.162;2023-04-21T04:51:15;95687.91;;;6.21;100.00
11198;BME280;5655;48.744;9.162;2023-04-21T04:53:41;95700.56;;;6.28;100.00
11198;BME280;5655;48.744;9.162;2023-04-21T04:56:06;95698.88;;;6.01;100.00
11198;BME280;5655;48.744;9.162;2023-04-21T04:58:32;95704.13;;;6.16;100.00
11198;BME280;5655;48.744;9.162;2023-04-21T05:00:57;95701.94;;;6.22;100.00
11198;BME280;5655;48.744;9.162;2023-04-21T05:03:22;95714.97;;;6.27;100.00
11198;BME280;5655;48.744;9.162;2023-04-21T05:05:48;95725.88;;;6.22;100.00
11198;BME280;5655;48.744;9.162;2023-04-21T05:08:13;95727.25;;;6.54;100.00
11198;BME280;5655;48.744;9.162;2023-04-21T05:10:38;95729.03;;;6.47;100.00
11198;BME280;5655;48.744;9.162;2023-04-21T05:13:04;95734.34;;;6.47;100.00
11198;BME280;5655;48.744;9.162;2023-04-21T05:15:29;95732.56;;;6.35;100.00
11198;BME280;5655;48.744;9.162;2023-04-21T05:17:55;95733.56;;;6.46;100.00
11198;BME280;5655;48.744;9.162;2023-04-21T05:20:20;95737.34;;;6.45;100.00
11198;BME280;5655;48.744;9.162;2023-04-21T05:22:46;95741.50;;;6.65;100.00
11198;BME280;5655;48.744;9.162;2023-04-21T05:25:12;95734.91;;;6.36;100.00
11198;BME280;5655;48.744;9.162;2023-04-21T05:27:41;95734.97;;;6.40;100.00
11198;BME280;5655;48.744;9.162;2023-04-21T05:30:07;95745.44;;;6.71;100.00
11198;BME280;5655;48.744;9.162;2023-04-21T05:32:32;95745.47;;;6.33;100.00
11198;BME280;5655;48.744;9.162;2023-04-21T05:34:58;95750.97;;;6.44;100.00
11198;BME280;5655;48.744;9.162;2023-04-21T05:37:24;95744.97;;;6.27;100.00
11198;BME280;5655;48.744;9.162;2023-04-21T05:39:50;95750.78;;;6.33;100.00
11198;BME280;5655;48.744;9.162;2023-04-21T05:42:15;95752.88;;;6.24;100.00
11198;BME280;5655;48.744;9.162;2023-04-21T05:44:42;95757.97;;;6.32;100.00
11198;BME280;5655;48.744;9.162;2023-04-21T05:47:07;95751.06;;;6.47;100.00
11198;BME280;5655;48.744;9.162;2023-04-21T05:49:33;95756.28;;;6.44;100.00
11198;BME280;5655;48.744;9.162;2023-04-21T05:51:58;95746.59;;;6.51;100.00
11198;BME280;5655;48.744;9.162;2023-04-21T05:54:24;95743.06;;;6.66;100.00
11198;BME280;5655;48.744;9.162;2023-04-21T05:56:49;95734.78;;;6.71;100.00
11198;BME280;5655;48.744;9.162;2023-04-21T05:59:15;95735.63;;;6.56;100.00
11198;BME280;5655;48.744;9.162;2023-04-21T06:01:41;95725.38;;;6.77;100.00
11198;BME280;5655;48.744;9.162;2023-04-21T06:04:06;95720.38;;;6.72;100.00
11198;BME280;5655;48.744;9.162;2023-04-21T06:06:32;95719.66;;;6.75;100.00
11198;BME280;5655;48.744;9.162;2023-04-21T06:08:57;95722.06;;;6.61;100.00
11198;BME280;5655;48.744;9.162;2023-04-21T06:11:22;95715.78;;;6.92;100.00
11198;BME280;5655;48.744;9.162;2023-04-21T06:13:48;95712.41;;;7.18;100.00
11198;BME280;5655;48.744;9.162;2023-04-21T06:16:14;95708.53;;;7.12;100.00
11198;BME280;5655;48.744;9.162;2023-04-21T06:18:39;95708.34;;;7.01;100.00
11198;BME280;5655;48.744;9.162;2023-04-21T06:21:04;95718.25;;;7.27;100.00
11198;BME280;5655;48.744;9.162;2023-04-21T06:23:30;95726.50;;;7.45;100.00
11198;BME280;5655;48.744;9.162;2023-04-21T06:26:03;95721.75;;;7.57;100.00
11198;BME280;5655;48.744;9.162;2023-04-21T06:28:30;95717.47;;;7.75;100.00
11198;BME280;5655;48.744;9.162;2023-04-21T06:30:56;95724.22;;;7.69;100.00
11198;BME280;5655;48.744;9.162;2023-04-21T06:33:21;95722.66;;;7.68;100.00
11198;BME280;5655;48.744;9.162;2023-04-21T06:35:47;95720.56;;;7.81;100.00
11198;BME280;5655;48.744;9.162;2023-04-21T06:38:12;95728.88;;;7.76;100.00
11198;BME280;5655;48.744;9.162;2023-04-21T06:40:37;95726.63;;;7.78;100.00
11198;BME280;5655;48.744;9.162;2023-04-21T06:43:02;95725.81;;;8.04;100.00
11198;BME280;5655;48.744;9.162;2023-04-21T06:45:28;95720.81;;;7.99;100.00
11198;BME280;5655;48.744;9.162;2023-04-21T06:47:53;95720.13;;;7.75;100.00
11198;BME280;5655;48.744;9.162;2023-04-21T06:50:18;95715.34;;;7.88;100.00
11198;BME280;5655;48.744;9.162;2023-04-21T06:52:44;95716.81;;;7.86;100.00
11198;BME280;5655;48.744;9.162;2023-04-21T06:55:09;95720.09;;;8.02;100.00
11198;BME280;5655;48.744;9.162;2023-04-21T06:57:34;95713.31;;;8.08;100.00
11198;BME280;5655;48.744;9.162;2023-04-21T07:00:00;95716.38;;;8.10;100.00
11198;BME280;5655;48.744;9.162;2023-04-21T07:02:25;95722.72;;;8.28;100.00
11198;BME280;5655;48.744;9.162;2023-04-21T07:04:50;95722.13;;;8.42;100.00
11198;BME280;5655;48.744;9.162;2023-04-21T07:07:16;95714.69;;;8.58;100.00
11198;BME280;5655;48.744;9.162;2023-04-21T07:09:41;95717.00;;;8.63;100.00
11198;BME280;5655;48.744;9.162;2023-04-21T07:12:06;95710.84;;;8.55;100.00
11198;BME280;5655;48.744;9.162;2023-04-21T07:14:32;95704.94;;;8.76;100.00
11198;BME280;5655;48.744;9.162;2023-04-21T07:16:57;95708.63;;;8.61;100.00
11198;BME280;5655;48.744;9.162;2023-04-21T07:19:23;95708.88;;;8.86;100.00
11198;BME280;5655;48.744;9.162;2023-04-21T07:21:48;95711.88;;;8.81;100.00
11198;BME280;5655;48.744;9.162;2023-04-21T07:24:13;95706.44;;;8.70;100.00
11198;BME280;5655;48.744;9.162;2023-04-21T07:26:39;95710.84;;;8.55;100.00
11198;BME280;5655;48.744;9.162;2023-04-21T07:29:04;95703.41;;;9.16;100.00
11198;BME280;5655;48.744;9.162;2023-04-21T07:31:30;95708.72;;;8.72;100.00
11198;BME280;5655;48.744;9.162;2023-04-21T07:33:55;95700.50;;;9.31;100.00
11198;BME280;5655;48.744;9.162;2023-04-21T07:36:20;95692.00;;;9.70;100.00
11198;BME280;5655;48.744;9.162;2023-04-21T07:38:46;95702.06;;;9.36;100.00
11198;BME280;5655;48.744;9.162;2023-04-21T07:41:11;95705.00;;;9.75;100.00
11198;BME280;5655;48.744;9.162;2023-04-21T07:43:38;95705.38;;;9.77;100.00
11198;BME280;5655;48.744;9.162;2023-04-21T07:46:04;95708.56;;;10.00;100.00
11198;BME280;5655;48.744;9.162;2023-04-21T07:48:29;95709.13;;;10.30;100.00
11198;BME280;5655;48.744;9.162;2023-04-21T07:50:55;95714.50;;;10.44;100.00
11198;BME280;5655;48.744;9.162;2023-04-21T07:53:22;95716.03;;;10.35;100.00
11198;BME280;5655;48.744;9.162;2023-04-21T07:55:48;95706.81;;;10.25;100.00
11198;BME280;5655;48.744;9.162;2023-04-21T07:58:13;95705.75;;;10.55;100.00
11198;BME280;5655;48.744;9.162;2023-04-21T08:00:38;95695.41;;;10.35;100.00
11198;BME280;5655;48.744;9.162;2023-04-21T08:03:04;95692.44;;;10.69;100.00
11198;BME280;5655;48.744;9.162;2023-04-21T08:05:29;95696.59;;;10.56;100.00
11198;BME280;5655;48.744;9.162;2023-04-21T08:07:56;95703.81;;;10.44;100.00
11198;BME280;5655;48.744;9.162;2023-04-21T08:10:21;95695.78;;;10.37;100.00
11198;BME280;5655;48.744;9.162;2023-04-21T08:12:47;95694.22;;;10.36;100.00
11198;BME280;5655;48.744;9.162;2023-04-21T08:15:12;95702.44;;;11.07;100.00
11198;BME280;5655;48.744;9.162;2023-04-21T08:17:37;95700.91;;;11.06;100.00
11198;BME280;5655;48.744;9.162;2023-04-21T08:20:04;95695.53;;;11.06;100.00
11198;BME280;5655;48.744;9.162;2023-04-21T08:22:29;95701.69;;;11.17;100.00
11198;BME280;5655;48.744;9.162;2023-04-21T08:24:55;95709.34;;;11.33;100.00
11198;BME280;5655;48.744;9.162;2023-04-21T08:27:20;95707.81;;;11.43;100.00
11198;BME280;5655;48.744;9.162;2023-04-21T08:29:46;95703.56;;;11.49;100.00
11198;BME280;5655;48.744;9.162;2023-04-21T08:32:12;95699.75;;;11.46;100.00
11198;BME280;5655;48.744;9.162;2023-04-21T08:34:37;95702.44;;;11.74;100.00
11198;BME280;5655;48.744;9.162;2023-04-21T08:37:02;95694.75;;;11.80;100.00
11198;BME280;5655;48.744;9.162;2023-04-21T08:39:28;95693.22;;;11.82;100.00
11198;BME280;5655;48.744;9.162;2023-04-21T08:41:53;95696.22;;;12.06;100.00
11198;BME280;5655;48.744;9.162;2023-04-21T08:44:19;95698.47;;;12.21;100.00
11198;BME280;5655;48.744;9.162;2023-04-21T08:46:49;95695.44;;;12.12;100.00
11198;BME280;5655;48.744;9.162;2023-04-21T08:49:18;95703.78;;;12.39;100.00
11198;BME280;5655;48.744;9.162;2023-04-21T08:51:45;95705.34;;;12.26;100.00
11198;BME280;5655;48.744;9.162;2023-04-21T08:54:10;95702.28;;;12.27;100.00
11198;BME280;5655;48.744;9.162;2023-04-21T08:56:36;95711.09;;;12.28;100.00
11198;BME280;5655;48.744;9.162;2023-04-21T08:59:01;95699.84;;;12.61;100.00
11198;BME280;5655;48.744;9.162;2023-04-21T09:01:27;95714.47;;;12.50;100.00
11198;BME280;5655;48.744;9.162;2023-04-21T09:03:52;95714.34;;;12.74;100.00
11198;BME280;5655;48.744;9.162;2023-04-21T09:06:17;95707.47;;;12.70;100.00
11198;BME280;5655;48.744;9.162;2023-04-21T09:08:52;95705.06;;;12.90;100.00
11198;BME280;5655;48.744;9.162;2023-04-21T09:11:17;95704.84;;;13.25;100.00
11198;BME280;5655;48.744;9.162;2023-04-21T09:13:43;95709.53;;;13.14;100.00
11198;BME280;5655;48.744;9.162;2023-04-21T09:16:17;95707.94;;;13.24;100.00
11198;BME280;5655;48.744;9.162;2023-04-21T09:18:45;95695.91;;;12.80;100.00
11198;BME280;5655;48.744;9.162;2023-04-21T09:21:15;95699.88;;;13.24;100.00
11198;BME280;5655;48.744;9.162;2023-04-21T09:23:50;95698.19;;;12.82;100.00
11198;BME280;5655;48.744;9.162;2023-04-21T09:26:17;95698.81;;;13.03;100.00
11198;BME280;5655;48.744;9.162;2023-04-21T09:28:44;95691.63;;;13.45;100.00
11198;BME280;5655;48.744;9.162;2023-04-21T09:31:14;95701.69;;;13.34;100.00
11198;BME280;5655;48.744;9.162;2023-04-21T09:33:52;95698.94;;;13.85;100.00
11198;BME280;5655;48.744;9.162;2023-04-21T09:36:20;95700.41;;;13.93;100.00
11198;BME280;5655;48.744;9.162;2023-04-21T09:38:56;95693.53;;;13.89;100.00
11198;BME280;5655;48.744;9.162;2023-04-21T09:41:22;95689.25;;;14.29;100.00
11198;BME280;5655;48.744;9.162;2023-04-21T09:43:48;95687.13;;;14.13;100.00
11198;BME280;5655;48.744;9.162;2023-04-21T09:46:17;95691.78;;;14.73;100.00
11198;BME280;5655;48.744;9.162;2023-04-21T09:48:44;95697.56;;;14.45;100.00
11198;BME280;5655;48.744;9.162;2023-04-21T09:51:14;95684.53;;;14.70;100.00
11198;BME280;5655;48.744;9.162;2023-04-21T09:53:41;95691.09;;;15.23;100.00
11198;BME280;5655;48.744;9.162;2023-04-21T09:56:11;95683.91;;;15.63;100.00
11198;BME280;5655;48.744;9.162;2023-04-21T09:58:46;95686.19;;;15.87;100.00
11198;BME280;5655;48.744;9.162;2023-04-21T10:01:13;95675.25;;;15.95;100.00
11198;BME280;5655;48.744;9.162;2023-04-21T10:03:40;95678.72;;;16.15;100.00
11198;BME280;5655;48.744;9.162;2023-04-21T10:06:06;95676.91;;;15.88;100.00
11198;BME280;5655;48.744;9.162;2023-04-21T10:08:32;95661.53;;;16.05;100.00
11198;BME280;5655;48.744;9.162;2023-04-21T10:10:58;95658.59;;;16.19;100.00
11198;BME280;5655;48.744;9.162;2023-04-21T10:13:24;95666.69;;;16.19;100.00
11198;BME280;5655;48.744;9.162;2023-04-21T10:16:00;95657.22;;;16.87;100.00
11198;BME280;5655;48.744;9.162;2023-04-21T10:18:27;95662.03;;;16.59;100.00
11198;BME280;5655;48.744;9.162;2023-04-21T10:26:01;95651.97;;;16.40;100.00
11198;BME280;5655;48.744;9.162;2023-04-21T10:29:27;95659.44;;;17.08;100.00
11198;BME280;5655;48.744;9.162;2023-04-21T10:31:36;95659.44;;;17.24;100.00
11198;BME280;5655;48.744;9.162;2023-04-21T10:41:49;95665.56;;;17.57;100.00
11198;BME280;5655;48.744;9.162;2023-04-21T10:44:15;95659.25;;;17.80;100.00
11198;BME280;5655;48.744;9.162;2023-04-21T10:46:48;95654.94;;;18.11;100.00
11198;BME280;5655;48.744;9.162;2023-04-21T10:49:23;95661.78;;;17.54;100.00
11198;BME280;5655;48.744;9.162;2023-04-21T10:54:42;95644.00;;;17.86;100.00
11198;BME280;5655;48.744;9.162;2023-04-21T10:57:14;95658.41;;;17.66;100.00
11198;BME280;5655;48.744;9.162;2023-04-21T10:59:40;95658.38;;;17.83;100.00
11198;BME280;5655;48.744;9.162;2023-04-21T11:02:06;95652.22;;;18.11;100.00
11198;BME280;5655;48.744;9.162;2023-04-21T11:04:33;95647.72;;;18.75;100.00
11198;BME280;5655;48.744;9.162;2023-04-21T11:07:10;95639.28;;;18.44;100.00
11198;BME280;5655;48.744;9.162;2023-04-21T11:09:37;95641.75;;;18.80;100.00
11198;BME280;5655;48.744;9.162;2023-04-21T11:12:05;95640.31;;;19.13;100.00
11198;BME280;5655;48.744;9.162;2023-04-21T11:14:33;95639.69;;;18.84;100.00
11198;BME280;5655;48.744;9.162;2023-04-21T11:16:59;95635.63;;;19.39;100.00
11198;BME280;5655;48.744;9.162;2023-04-21T11:19:25;95637.06;;;19.43;100.00
11198;BME280;5655;48.744;9.162;2023-04-21T11:21:52;95627.56;;;19.95;100.00
11198;BME280;5655;48.744;9.162;2023-04-21T11:24:20;95630.84;;;19.90;100.00
11198;BME280;5655;48.744;9.162;2023-04-21T11:26:45;95625.59;;;18.89;100.00
11198;BME280;5655;48.744;9.162;2023-04-21T11:29:10;95634.44;;;19.53;100.00
11198;BME280;5655;48.744;9.162;2023-04-21T11:31:40;95633.47;;;19.34;100.00
11198;BME280;5655;48.744;9.162;2023-04-21T11:34:06;95630.97;;;20.08;100.00
11198;BME280;5655;48.744;9.162;2023-04-21T11:36:33;95632.66;;;20.58;100.00
11198;BME280;5655;48.744;9.162;2023-04-21T11:39:03;95628.19;;;19.99;100.00
11198;BME280;5655;48.744;9.162;2023-04-21T11:41:32;95623.78;;;19.92;100.00
11198;BME280;5655;48.744;9.162;2023-04-21T11:43:57;95625.56;;;20.30;100.00
11198;BME280;5655;48.744;9.162;2023-04-21T11:46:25;95613.78;;;20.11;100.00
11198;BME280;5655;48.744;9.162;2023-04-21T11:48:58;95611.75;;;20.03;100.00
11198;BME280;5655;48.744;9.162;2023-04-21T11:51:24;95616.31;;;20.49;100.00
11198;BME280;5655;48.744;9.162;2023-04-21T11:53:49;95611.84;;;20.33;100.00
11198;BME280;5655;48.744;9.162;2023-04-21T11:56:21;95615.34;;;21.05;100.00
11198;BME280;5655;48.744;9.162;2023-04-21T11:58:48;95616.84;;;21.06;100.00
11198;BME280;5655;48.744;9.162;2023-04-21T12:01:15;95612.97;;;21.16;100.00
11198;BME280;5655;48.744;9.162;2023-04-21T12:03:40;95609.59;;;21.52;100.00
11198;BME280;5655;48.744;9.162;2023-04-21T12:06:06;95610.75;;;21.33;100.00
11198;BME280;5655;48.744;9.162;2023-04-21T12:08:31;95611.25;;;21.67;100.00
11198;BME280;5655;48.744;9.162;2023-04-21T12:10:58;95610.59;;;21.18;100.00
11198;BME280;5655;48.744;9.162;2023-04-21T12:13:26;95610.03;;;21.50;100.00
11198;BME280;5655;48.744;9.162;2023-04-21T12:15:51;95614.00;;;21.86;100.00
11198;BME280;5655;48.744;9.162;2023-04-21T12:18:16;95609.16;;;21.90;100.00
11198;BME280;5655;48.744;9.162;2023-04-21T12:20:49;95603.72;;;21.04;100.00
11198;BME280;5655;48.744;9.162;2023-04-21T12:23:15;95592.16;;;21.22;100.00
11198;BME280;5655;48.744;9.162;2023-04-21T12:25:41;95594.47;;;21.87;100.00
11198;BME280;5655;48.744;9.162;2023-04-21T12:28:07;95590.31;;;21.19;100.00
11198;BME280;5655;48.744;9.162;2023-04-21T12:30:33;95586.00;;;22.03;100.00
11198;BME280;5655;48.744;9.162;2023-04-21T12:32:59;95592.03;;;21.89;100.00
11198;BME280;5655;48.744;9.162;2023-04-21T12:35:25;95586.09;;;22.27;100.00
11198;BME280;5655;48.744;9.162;2023-04-21T12:37:50;95582.28;;;22.52;100.00
11198;BME280;5655;48.744;9.162;2023-04-21T12:40:16;95576.28;;;22.21;100.00
11198;BME280;5655;48.744;9.162;2023-04-21T12:42:42;95568.31;;;22.50;100.00
11198;BME280;5655;48.744;9.162;2023-04-21T12:45:07;95571.06;;;22.50;100.00
11198;BME280;5655;48.744;9.162;2023-04-21T12:47:33;95562.91;;;22.32;100.00
11198;BME280;5655;48.744;9.162;2023-04-21T12:49:59;95563.59;;;23.01;100.00
11198;BME280;5655;48.744;9.162;2023-04-21T12:52:24;95566.13;;;22.81;100.00
11198;BME280;5655;48.744;9.162;2023-04-21T12:54:50;95555.44;;;22.92;100.00
11198;BME280;5655;48.744;9.162;2023-04-21T12:57:15;95559.69;;;23.17;100.00
11198;BME280;5655;48.744;9.162;2023-04-21T12:59:41;95562.44;;;23.41;100.00
11198;BME280;5655;48.744;9.162;2023-04-21T13:02:06;95563.66;;;22.83;100.00
11198;BME280;5655;48.744;9.162;2023-04-21T13:04:31;95564.53;;;22.98;100.00
11198;BME280;5655;48.744;9.162;2023-04-21T13:06:57;95566.00;;;23.32;99.29
11198;BME280;5655;48.744;9.162;2023-04-21T13:09:22;95555.53;;;23.55;91.17
11198;BME280;5655;48.744;9.162;2023-04-21T13:11:47;95565.22;;;22.24;100.00
11198;BME280;5655;48.744;9.162;2023-04-21T13:14:13;95554.38;;;22.99;100.00
11198;BME280;5655;48.744;9.162;2023-04-21T13:16:40;95554.75;;;23.06;100.00
11198;BME280;5655;48.744;9.162;2023-04-21T13:19:05;95557.22;;;23.52;100.00